Aérodrome :
LOGIN :

S'inscrire | Disclaimer

   EN    FR    IT 

 










Légende :    VFR   VFR Marginal   IFR   IFR Intensif   IFR Très Intensif
Visi : 
Plafond : 
>= 8 km
>= 3000ft
5 à 8 km
1000 à 3000 ft
1500m à 5 km
500 à 1000 ft
800 à 1500m
200 à 500 ft
< 800m
< 200 ft
Symboles :   Orages  Brouillard  Fortes neiges  Fortes précipitations  Vent > 20 kt
SIGMETs :   Divers  Orages  Givrage  Turbulence  Onde Orograph.  Cendres Volcan.







- Altitude de l'aérodrome : 1649 ft
- Code IATA : HHN


EDFH - Frankfurt-Hahn Rhineland-Palatinate

DERNIER METAR :
  • 231520Z 24013KT 9999 SCT020 06/02 Q1023

METARs EXPIRÉS :
  • 231450Z 22008KT 200V270 9999 FEW015 BKN025 06/03 Q1023
  • 231420Z 22008KT 180V250 9999 SCT015 BKN026 06/03 Q1023
  • 231350Z 22009KT 190V250 9999 SCT013 BKN028 05/04 Q1023
  • 231320Z 22007KT 9999 SCT012 SCT028 05/04 Q1023
  • 231250Z 22009KT 9000 SCT009 SCT018 05/04 Q1023

TAF TAF EDFH
Valide du 23 à 12h jusqu'au 24 à 12h UTC


231100Z 2312/2412 24010KT 9999 BKN025
BECMG 2317/2320 BKN010
TEMPO 2318/2410 23015G25KT 4000 RA BR BKN008
PROB40
TEMPO 2320/2410 2000 -DZRA BKN003
BECMG 2410/2412 22015G25KT
Pas de NOTAMs connus pour ce terrain.



MET'MAP, la Météo Aéronautique d'un coup d'oeil ! - Copyright ORBIFLY Décembre 2007 - Disclaimer

ORBIFLY MET'MAP TEAM :

Programmation & Développement : Alexandra Zaïnal
Conception & Développement : Baudouin d'Aumeries
Co-Programmation & Développement : Marc-Olivier Méhu
Soutien technique & logistique : Manuel Goepfert

Contact : metmap@orbifly.com




SOURCES & CREDITS :

   NOAA